createdAt,value
2017-03-02T00:00:10.747Z,4
2017-03-02T00:01:11.071Z,4
2017-03-02T00:02:11.045Z,4
2017-03-02T00:03:10.956Z,4
2017-03-02T00:04:10.892Z,4
2017-03-02T00:05:10.821Z,4
2017-03-02T00:06:10.783Z,4
2017-03-02T00:07:10.701Z,4
2017-03-02T00:08:10.649Z,4
2017-03-02T00:09:10.589Z,8
2017-03-02T00:10:10.509Z,8
2017-03-02T00:11:10.446Z,8
2017-03-02T00:12:10.395Z,8
2017-03-02T00:13:10.334Z,8
2017-03-02T00:14:10.274Z,8
2017-03-02T00:15:10.198Z,8
2017-03-02T00:16:10.138Z,8
2017-03-02T00:17:10.086Z,0
2017-03-02T00:18:10.025Z,0
2017-03-02T00:19:09.956Z,0
2017-03-02T00:20:09.918Z,0
2017-03-02T00:21:09.847Z,0
2017-03-02T00:22:09.759Z,0
2017-03-02T00:23:09.698Z,0
2017-03-02T00:24:09.256Z,0
2017-03-02T00:25:09.219Z,0
2017-03-02T00:26:09.551Z,0
2017-03-02T00:27:09.467Z,0
2017-03-02T00:28:09.389Z,0
2017-03-02T00:29:09.327Z,0
2017-03-02T00:30:09.269Z,0
2017-03-02T00:31:09.225Z,0
2017-03-02T00:32:09.156Z,0
2017-03-02T00:33:09.081Z,0
2017-03-02T00:34:09.014Z,0
2017-03-02T00:35:08.956Z,0
2017-03-02T00:36:08.537Z,0
2017-03-02T00:37:08.847Z,0
2017-03-02T00:38:08.403Z,0
2017-03-02T00:39:08.738Z,0
2017-03-02T00:40:08.659Z,0
2017-03-02T00:41:08.620Z,0
2017-03-02T00:42:08.138Z,0
2017-03-02T00:43:08.486Z,0
2017-03-02T00:44:08.408Z,0
2017-03-02T00:45:07.976Z,0
2017-03-02T00:46:07.899Z,0
2017-03-02T00:47:08.231Z,0
2017-03-02T00:48:08.153Z,0
2017-03-02T00:49:08.116Z,0
2017-03-02T00:50:07.651Z,0
2017-03-02T00:51:07.960Z,0
2017-03-02T00:52:07.539Z,0
2017-03-02T00:53:07.845Z,0
2017-03-02T00:54:07.789Z,0
2017-03-02T00:55:07.717Z,0
2017-03-02T00:56:07.285Z,0
2017-03-02T00:57:07.595Z,0
2017-03-02T00:58:07.537Z,0
2017-03-02T00:59:07.518Z,0
2017-03-02T01:01:24.873Z,0
2017-03-02T01:02:18.135Z,0
2017-03-02T01:03:18.095Z,0
2017-03-02T01:04:18.041Z,0
2017-03-02T01:05:17.952Z,0
2017-03-02T01:06:17.504Z,0
2017-03-02T01:07:17.831Z,0
2017-03-02T01:08:17.756Z,0
2017-03-02T01:09:18.087Z,0
2017-03-02T01:10:18.041Z,0
2017-03-02T01:11:17.621Z,0
2017-03-02T01:12:17.909Z,0
2017-03-02T01:13:17.459Z,0
2017-03-02T01:14:17.404Z,0
2017-03-02T01:15:17.365Z,0
2017-03-02T01:16:16.898Z,0
2017-03-02T01:17:17.221Z,0
2017-03-02T01:18:17.148Z,0
2017-03-02T01:19:17.464Z,0
2017-03-02T01:20:17.016Z,0
2017-03-02T01:21:17.369Z,0
2017-03-02T01:22:17.421Z,0
2017-03-02T01:23:17.218Z,0
2017-03-02T01:24:16.773Z,0
2017-03-02T01:25:16.922Z,0
2017-03-02T01:26:17.038Z,0
2017-03-02T01:27:16.637Z,0
2017-03-02T01:28:16.538Z,0
2017-03-02T01:29:16.859Z,0
2017-03-02T01:30:16.405Z,0
2017-03-02T01:31:16.349Z,0
2017-03-02T01:32:16.308Z,0
2017-03-02T01:33:16.218Z,0
2017-03-02T01:34:16.559Z,0
2017-03-02T01:35:16.470Z,0
2017-03-02T01:36:15.691Z,0
2017-03-02T01:37:16.345Z,0
2017-03-02T01:38:16.323Z,0
2017-03-02T01:39:15.888Z,0
2017-03-02T01:40:15.794Z,0
2017-03-02T01:41:16.120Z,0
2017-03-02T01:42:15.661Z,0
2017-03-02T01:43:15.973Z,0
2017-03-02T01:44:15.177Z,0
2017-03-02T01:45:15.873Z,0
2017-03-02T01:46:15.432Z,0
2017-03-02T01:47:15.398Z,0
2017-03-02T01:48:15.314Z,0
2017-03-02T01:49:15.517Z,0
2017-03-02T01:50:15.190Z,0
2017-03-02T01:51:14.736Z,0
2017-03-02T01:52:14.686Z,0
2017-03-02T01:53:15.396Z,0
2017-03-02T01:54:14.529Z,0
2017-03-02T01:55:14.837Z,0
2017-03-02T01:56:15.186Z,0
2017-03-02T01:57:14.743Z,0
2017-03-02T01:58:14.281Z,0
2017-03-02T01:59:15.011Z,0
2017-03-02T02:00:14.554Z,0
2017-03-02T02:01:22.549Z,0
2017-03-02T02:02:14.421Z,0
2017-03-02T02:03:14.732Z,0
2017-03-02T02:04:14.290Z,0
2017-03-02T02:05:14.223Z,0
2017-03-02T02:06:14.563Z,0
2017-03-02T02:07:14.509Z,0
2017-03-02T02:08:13.665Z,0
2017-03-02T02:09:14.002Z,0
2017-03-02T02:10:13.981Z,0
2017-03-02T02:11:13.875Z,0
2017-03-02T02:12:13.414Z,0
2017-03-02T02:13:13.743Z,0
2017-03-02T02:14:13.671Z,0
2017-03-02T02:15:13.601Z,0
2017-03-02T02:16:13.158Z,0
2017-03-02T02:17:13.867Z,0
2017-03-02T02:18:13.813Z,0
2017-03-02T02:19:13.748Z,0
2017-03-02T02:20:13.304Z,0
2017-03-02T02:21:13.295Z,0
2017-03-02T02:22:13.551Z,0
2017-03-02T02:23:13.168Z,0
2017-03-02T02:24:13.051Z,0
2017-03-02T02:25:13.398Z,0
2017-03-02T02:26:12.938Z,0
2017-03-02T02:27:12.490Z,0
2017-03-02T02:28:12.858Z,0
2017-03-02T02:29:12.763Z,0
2017-03-02T02:30:12.700Z,0
2017-03-02T02:31:13.018Z,0
2017-03-02T02:32:12.949Z,0
2017-03-02T02:33:12.897Z,0
2017-03-02T02:34:12.057Z,0
2017-03-02T02:35:12.737Z,0
2017-03-02T02:36:11.937Z,0
2017-03-02T02:37:12.662Z,0
2017-03-02T02:38:12.583Z,0
2017-03-02T02:39:12.115Z,0
2017-03-02T02:40:12.450Z,0
2017-03-02T02:41:12.000Z,0
2017-03-02T02:42:11.945Z,0
2017-03-02T02:43:12.261Z,0
2017-03-02T02:44:12.187Z,0
2017-03-02T02:45:12.131Z,0
2017-03-02T02:46:11.676Z,0
2017-03-02T02:47:11.637Z,0
2017-03-02T02:48:11.577Z,0
2017-03-02T02:49:11.498Z,0
2017-03-02T02:50:11.813Z,0
2017-03-02T02:51:10.973Z,0
2017-03-02T02:52:10.929Z,0
2017-03-02T02:53:11.673Z,0
2017-03-02T02:54:10.803Z,0
2017-03-02T02:55:10.736Z,0
2017-03-02T02:56:11.103Z,0
2017-03-02T02:57:11.002Z,0
2017-03-02T02:58:10.931Z,0
2017-03-02T02:59:11.267Z,0
2017-03-02T03:00:11.208Z,0
2017-03-02T03:01:11.132Z,0
2017-03-02T03:02:10.712Z,0
2017-03-02T03:03:09.858Z,0
2017-03-02T03:04:10.952Z,0
2017-03-02T03:05:10.494Z,0
2017-03-02T03:06:10.822Z,0
2017-03-02T03:07:10.377Z,0
2017-03-02T03:08:10.324Z,0
2017-03-02T03:09:10.266Z,0
2017-03-02T03:10:10.594Z,0
2017-03-02T03:11:10.400Z,0
2017-03-02T03:12:09.704Z,0
2017-03-02T03:13:10.025Z,0
2017-03-02T03:14:09.958Z,0
2017-03-02T03:15:10.256Z,0
2017-03-02T03:16:10.197Z,0
2017-03-02T03:17:09.796Z,0
2017-03-02T03:18:10.087Z,0
2017-03-02T03:19:10.014Z,0
2017-03-02T03:20:09.951Z,0
2017-03-02T03:21:09.519Z,0
2017-03-02T03:22:09.445Z,0
2017-03-02T03:23:09.390Z,0
2017-03-02T03:24:09.724Z,0
2017-03-02T03:25:08.871Z,0
2017-03-02T03:26:09.593Z,0
2017-03-02T03:27:09.162Z,0
2017-03-02T03:28:09.478Z,0
2017-03-02T03:29:08.631Z,0
2017-03-02T03:30:08.584Z,0
2017-03-02T03:31:09.293Z,0
2017-03-02T03:32:08.444Z,0
2017-03-02T03:33:09.167Z,0
2017-03-02T03:34:08.360Z,0
2017-03-02T03:35:08.668Z,0
2017-03-02T03:36:08.206Z,0
2017-03-02T03:37:08.901Z,0
2017-03-02T03:38:08.090Z,0
2017-03-02T03:39:08.794Z,0
2017-03-02T03:40:08.724Z,0
2017-03-02T03:41:08.311Z,0
2017-03-02T03:42:08.734Z,0
2017-03-02T03:43:08.158Z,0
2017-03-02T03:44:08.076Z,0
2017-03-02T03:45:08.021Z,0
2017-03-02T03:46:07.232Z,0
2017-03-02T03:47:07.532Z,0
2017-03-02T03:48:07.506Z,0
2017-03-02T03:49:08.150Z,0
2017-03-02T03:50:08.089Z,0
2017-03-02T03:51:08.042Z,0
2017-03-02T03:52:07.601Z,0
2017-03-02T03:53:07.538Z,0
2017-03-02T03:54:07.461Z,0
2017-03-02T03:55:07.787Z,0
2017-03-02T03:56:07.727Z,0
2017-03-02T03:57:07.664Z,0
2017-03-02T03:58:07.636Z,0
2017-03-02T03:59:07.574Z,0
2017-03-02T04:00:07.135Z,0
2017-03-02T04:01:06.652Z,0
2017-03-02T04:02:07.000Z,0
2017-03-02T04:03:07.515Z,0
2017-03-02T04:04:06.501Z,0
2017-03-02T04:05:07.335Z,0
2017-03-02T04:06:06.725Z,0
2017-03-02T04:07:07.049Z,0
2017-03-02T04:08:06.616Z,0
2017-03-02T04:09:06.552Z,0
2017-03-02T04:10:06.522Z,0
2017-03-02T04:11:06.405Z,0
2017-03-02T04:12:05.953Z,0
2017-03-02T04:13:05.914Z,0
2017-03-02T04:14:06.270Z,0
2017-03-02T04:15:05.792Z,0
2017-03-02T04:16:06.483Z,0
2017-03-02T04:17:06.440Z,0
2017-03-02T04:18:05.977Z,0
2017-03-02T04:19:06.282Z,0
2017-03-02T04:20:05.868Z,0
2017-03-02T04:21:05.789Z,0
2017-03-02T04:22:06.134Z,0
2017-03-02T04:23:05.664Z,0
2017-03-02T04:24:05.985Z,0
2017-03-02T04:25:05.839Z,0
2017-03-02T04:26:05.852Z,0
2017-03-02T04:27:05.413Z,0
2017-03-02T04:28:04.582Z,0
2017-03-02T04:29:05.311Z,0
2017-03-02T04:30:05.240Z,0
2017-03-02T04:31:05.169Z,0
2017-03-02T04:32:05.131Z,0
2017-03-02T04:33:05.033Z,0
2017-03-02T04:34:05.108Z,0
2017-03-02T04:35:05.303Z,0
2017-03-02T04:36:04.850Z,0
2017-03-02T04:37:05.166Z,0
2017-03-02T04:38:04.735Z,0
2017-03-02T04:39:04.288Z,0
2017-03-02T04:40:04.762Z,0
2017-03-02T04:41:04.157Z,0
2017-03-02T04:42:03.710Z,0
2017-03-02T04:43:04.820Z,0
2017-03-02T04:44:04.756Z,0
2017-03-02T04:45:04.286Z,0
2017-03-02T04:46:04.898Z,0
2017-03-02T04:47:04.161Z,0
2017-03-02T04:48:04.524Z,0
2017-03-02T04:49:04.466Z,0
2017-03-02T04:50:04.376Z,0
2017-03-02T04:51:03.940Z,0
2017-03-02T04:52:04.262Z,0
2017-03-02T04:53:03.949Z,0
2017-03-02T04:54:04.113Z,0
2017-03-02T04:55:03.675Z,0
2017-03-02T04:56:04.087Z,0
2017-03-02T04:57:03.540Z,0
2017-03-02T04:58:03.551Z,0
2017-03-02T04:59:03.812Z,0
2017-03-02T05:00:04.169Z,0
2017-03-02T05:01:02.540Z,0
2017-03-02T05:02:02.843Z,0
2017-03-02T05:03:03.577Z,0
2017-03-02T05:04:03.116Z,0
2017-03-02T05:05:03.047Z,0
2017-03-02T05:06:03.367Z,0
2017-03-02T05:07:03.322Z,0
2017-03-02T05:08:03.251Z,0
2017-03-02T05:09:03.205Z,0
2017-03-02T05:10:03.113Z,0
2017-03-02T05:11:02.715Z,0
2017-03-02T05:12:02.619Z,0
2017-03-02T05:13:02.549Z,0
2017-03-02T05:14:02.877Z,0
2017-03-02T05:15:02.828Z,0
2017-03-02T05:16:02.397Z,0
2017-03-02T05:17:02.708Z,0
2017-03-02T05:18:02.616Z,0
2017-03-02T05:19:02.570Z,0
2017-03-02T05:20:02.119Z,0
2017-03-02T05:21:02.447Z,0
2017-03-02T05:22:01.994Z,0
2017-03-02T05:23:01.765Z,0
2017-03-02T05:24:01.894Z,0
2017-03-02T05:25:02.184Z,0
2017-03-02T05:26:02.126Z,0
2017-03-02T05:27:02.059Z,0
2017-03-02T05:28:01.621Z,0
2017-03-02T05:29:01.547Z,0
2017-03-02T05:30:01.916Z,0
2017-03-02T05:31:01.052Z,0
2017-03-02T05:32:01.756Z,0
2017-03-02T05:33:01.690Z,0
2017-03-02T05:34:01.235Z,0
2017-03-02T05:35:01.572Z,0
2017-03-02T05:36:01.123Z,0
2017-03-02T05:37:01.072Z,0
2017-03-02T05:38:01.375Z,0
2017-03-02T05:39:00.939Z,0
2017-03-02T05:40:01.258Z,0
2017-03-02T05:41:00.817Z,0
2017-03-02T05:42:00.759Z,0
2017-03-02T05:43:00.697Z,0
2017-03-02T05:44:00.247Z,0
2017-03-02T05:45:00.962Z,0
2017-03-02T05:46:00.520Z,0
2017-03-02T05:47:00.433Z,0
2017-03-02T05:48:00.413Z,0
2017-03-02T05:48:59.931Z,0
2017-03-02T05:50:00.266Z,0
2017-03-02T05:51:00.074Z,0
2017-03-02T05:52:00.122Z,0
2017-03-02T05:53:00.087Z,0
2017-03-02T05:54:00.385Z,0
2017-03-02T05:55:00.518Z,0
2017-03-02T05:55:59.886Z,0
2017-03-02T05:56:59.071Z,0
2017-03-02T05:57:59.758Z,0
2017-03-02T05:59:00.360Z,0
2017-03-02T05:59:59.239Z,0
2017-03-02T06:00:59.586Z,0
2017-03-02T06:02:06.991Z,0
2017-03-02T06:02:59.457Z,0
2017-03-02T06:03:59.011Z,0
2017-03-02T06:04:59.716Z,0
2017-03-02T06:05:58.889Z,0
2017-03-02T06:06:59.210Z,0
2017-03-02T06:07:59.126Z,0
2017-03-02T06:08:59.077Z,0
2017-03-02T06:09:59.383Z,0
2017-03-02T06:10:58.958Z,0
2017-03-02T06:11:58.898Z,4
2017-03-02T06:12:58.446Z,4
2017-03-02T06:13:58.801Z,4
2017-03-02T06:14:58.593Z,4
2017-03-02T06:15:59.190Z,4
2017-03-02T06:16:58.197Z,4
2017-03-02T06:17:58.904Z,4
2017-03-02T06:18:58.829Z,4
2017-03-02T06:19:58.763Z,4
2017-03-02T06:20:58.718Z,4
2017-03-02T06:21:57.953Z,4
2017-03-02T06:22:58.643Z,4
2017-03-02T06:23:58.167Z,4
2017-03-02T06:24:58.487Z,4
2017-03-02T06:25:57.240Z,4
2017-03-02T06:26:58.334Z,4
2017-03-02T06:27:57.581Z,4
2017-03-02T06:28:57.836Z,4
2017-03-02T06:29:58.174Z,4
2017-03-02T06:30:56.939Z,4
2017-03-02T06:31:57.660Z,4
2017-03-02T06:32:57.971Z,4
2017-03-02T06:33:56.796Z,4
2017-03-02T06:34:57.104Z,8
2017-03-02T06:35:57.006Z,4
2017-03-02T06:36:57.385Z,4
2017-03-02T06:37:57.662Z,8
2017-03-02T06:38:57.606Z,8
2017-03-02T06:39:57.158Z,8
2017-03-02T06:40:57.099Z,8
2017-03-02T06:41:57.029Z,4
2017-03-02T06:42:56.973Z,8
2017-03-02T06:43:57.296Z,4
2017-03-02T06:44:56.864Z,8
2017-03-02T06:45:56.770Z,8
2017-03-02T06:46:56.344Z,8
2017-03-02T06:47:55.877Z,8
2017-03-02T06:48:56.963Z,8
2017-03-02T06:49:56.926Z,8
2017-03-02T06:50:55.756Z,8
2017-03-02T06:51:56.016Z,8
2017-03-02T06:52:56.747Z,8
2017-03-02T06:53:56.287Z,8
2017-03-02T06:54:56.613Z,8
2017-03-02T06:55:56.539Z,8
2017-03-02T06:56:56.503Z,12
2017-03-02T06:57:56.303Z,8
2017-03-02T06:58:56.353Z,8
2017-03-02T06:59:56.590Z,8
2017-03-02T07:00:56.386Z,8
2017-03-02T07:01:55.798Z,8
2017-03-02T07:02:56.106Z,8
2017-03-02T07:03:55.259Z,12
2017-03-02T07:04:55.605Z,8
2017-03-02T07:05:56.067Z,8
2017-03-02T07:06:55.103Z,8
2017-03-02T07:07:55.419Z,8
2017-03-02T07:08:55.739Z,12
2017-03-02T07:09:55.273Z,8
2017-03-02T07:10:55.512Z,12
2017-03-02T07:11:55.143Z,12
2017-03-02T07:12:55.484Z,8
2017-03-02T07:13:54.673Z,12
2017-03-02T07:14:55.353Z,16
2017-03-02T07:15:54.902Z,16
2017-03-02T07:16:55.222Z,16
2017-03-02T07:17:54.405Z,16
2017-03-02T07:18:54.733Z,12
2017-03-02T07:19:54.279Z,16
2017-03-02T07:20:54.221Z,12
2017-03-02T07:21:54.917Z,12
2017-03-02T07:22:54.479Z,12
2017-03-02T07:23:54.800Z,12
2017-03-02T07:24:53.976Z,12
2017-03-02T07:25:54.285Z,12
2017-03-02T07:26:54.618Z,8
2017-03-02T07:27:54.187Z,4
2017-03-02T07:28:54.487Z,8
2017-03-02T07:29:54.028Z,12
2017-03-02T07:30:54.621Z,16
2017-03-02T07:31:54.291Z,16
2017-03-02T07:32:53.494Z,20
2017-03-02T07:33:54.162Z,20
2017-03-02T07:34:54.129Z,16
2017-03-02T07:35:53.666Z,16
2017-03-02T07:36:53.982Z,20
2017-03-02T07:37:53.161Z,16
2017-03-02T07:38:53.942Z,16
2017-03-02T07:39:53.427Z,12
2017-03-02T07:40:53.734Z,16
2017-03-02T07:41:53.964Z,16
2017-03-02T07:42:53.826Z,12
2017-03-02T07:43:53.565Z,12
2017-03-02T07:44:53.786Z,16
2017-03-02T07:45:53.438Z,12
2017-03-02T07:46:52.623Z,12
2017-03-02T07:47:53.299Z,12
2017-03-02T07:48:52.907Z,12
2017-03-02T07:49:53.083Z,12
2017-03-02T07:50:53.175Z,12
2017-03-02T07:51:53.065Z,12
2017-03-02T07:52:52.999Z,12
2017-03-02T07:53:52.541Z,12
2017-03-02T07:54:52.088Z,8
2017-03-02T07:55:52.422Z,8
2017-03-02T07:56:51.982Z,8
2017-03-02T07:57:52.301Z,8
2017-03-02T07:58:51.834Z,8
2017-03-02T07:59:51.800Z,8
2017-03-02T08:00:52.441Z,8
2017-03-02T08:01:52.106Z,12
2017-03-02T08:02:52.365Z,8
2017-03-02T08:03:51.528Z,12
2017-03-02T08:04:51.470Z,12
2017-03-02T08:05:51.797Z,12
2017-03-02T08:06:51.735Z,8
2017-03-02T08:07:52.280Z,8
2017-03-02T08:08:51.995Z,8
2017-03-02T08:09:51.943Z,8
2017-03-02T08:10:51.498Z,12
2017-03-02T08:11:51.895Z,8
2017-03-02T08:12:50.972Z,8
2017-03-02T08:13:51.959Z,8
2017-03-02T08:14:51.254Z,8
2017-03-02T08:15:51.196Z,12
2017-03-02T08:16:50.767Z,12
2017-03-02T08:17:51.441Z,12
2017-03-02T08:18:50.995Z,12
2017-03-02T08:19:50.918Z,12
2017-03-02T08:20:50.870Z,12
2017-03-02T08:21:50.804Z,12
2017-03-02T08:22:50.350Z,12
2017-03-02T08:23:51.084Z,12
2017-03-02T08:24:50.632Z,12
2017-03-02T08:25:50.944Z,16
2017-03-02T08:26:50.107Z,12
2017-03-02T08:27:50.046Z,12
2017-03-02T08:28:49.647Z,12
2017-03-02T08:29:50.322Z,12
2017-03-02T08:30:49.867Z,12
2017-03-02T08:31:50.557Z,12
2017-03-02T08:32:50.121Z,12
2017-03-02T08:33:49.684Z,12
2017-03-02T08:34:49.686Z,12
2017-03-02T08:35:50.332Z,12
2017-03-02T08:36:49.867Z,12
2017-03-02T08:37:49.032Z,12
2017-03-02T08:38:48.964Z,16
2017-03-02T08:39:50.061Z,12
2017-03-02T08:40:49.617Z,12
2017-03-02T08:41:49.582Z,12
2017-03-02T08:42:49.502Z,12
2017-03-02T08:43:49.440Z,12
2017-03-02T08:44:49.383Z,12
2017-03-02T08:45:48.943Z,12
2017-03-02T08:46:48.867Z,12
2017-03-02T08:47:48.444Z,12
2017-03-02T08:48:49.511Z,12
2017-03-02T08:49:49.061Z,12
2017-03-02T08:50:48.632Z,12
2017-03-02T08:51:48.560Z,12
2017-03-02T08:52:48.494Z,16
2017-03-02T08:53:49.191Z,16
2017-03-02T08:54:49.125Z,16
2017-03-02T08:55:48.601Z,20
2017-03-02T08:56:49.070Z,20
2017-03-02T08:57:48.866Z,16
2017-03-02T08:58:48.520Z,16
2017-03-02T08:59:48.460Z,20
2017-03-02T09:00:49.528Z,16
2017-03-02T09:01:48.354Z,16
2017-03-02T09:02:47.880Z,16
2017-03-02T09:03:47.825Z,16
2017-03-02T09:04:48.539Z,16
2017-03-02T09:05:48.442Z,16
2017-03-02T09:06:47.642Z,12
2017-03-02T09:07:47.555Z,12
2017-03-02T09:08:47.905Z,12
2017-03-02T09:09:47.814Z,12
2017-03-02T09:10:48.060Z,16
2017-03-02T09:11:47.300Z,16
2017-03-02T09:12:47.250Z,16
2017-03-02T09:13:47.192Z,16
2017-03-02T09:14:47.117Z,16
2017-03-02T09:15:47.306Z,16
2017-03-02T09:16:47.677Z,16
2017-03-02T09:17:47.736Z,16
2017-03-02T09:18:47.655Z,20
2017-03-02T09:19:47.861Z,24
2017-03-02T09:20:47.258Z,28
2017-03-02T09:21:47.467Z,28
2017-03-02T09:22:46.621Z,24
2017-03-02T09:23:46.566Z,24
2017-03-02T09:24:47.082Z,20
2017-03-02T09:25:46.685Z,24
2017-03-02T09:26:46.371Z,40
2017-03-02T09:27:46.708Z,44
2017-03-02T09:28:46.637Z,40
2017-03-02T09:29:46.193Z,40
2017-03-02T09:30:46.520Z,36
2017-03-02T09:31:46.127Z,36
2017-03-02T09:32:46.794Z,36
2017-03-02T09:33:46.720Z,36
2017-03-02T09:34:45.898Z,32
2017-03-02T09:35:46.260Z,32
2017-03-02T09:36:46.166Z,32
2017-03-02T09:37:46.180Z,32
2017-03-02T09:38:45.753Z,28
2017-03-02T09:39:46.341Z,28
2017-03-02T09:40:46.279Z,32
2017-03-02T09:41:45.457Z,28
2017-03-02T09:42:45.766Z,28
2017-03-02T09:43:45.704Z,24
2017-03-02T09:44:46.033Z,24
2017-03-02T09:45:45.209Z,20
2017-03-02T09:46:45.940Z,16
2017-03-02T09:47:45.113Z,20
2017-03-02T09:48:45.419Z,16
2017-03-02T09:49:45.748Z,16
2017-03-02T09:50:45.273Z,16
2017-03-02T09:51:45.235Z,16
